Dati Storici

Data ora Umidita' aria (%) Temperatura aria (°C) Rad globale (W/m²) Gonioanemometro (°) Tacoanemometro (m/s) Pioggia (mm)
05-11-2012 06:10 97.2 % 14.294 3.139 244.675 0.806 0
05-11-2012 06:00 97.2 % 14.357 2.998 252.398 0.425 0
05-11-2012 05:50 97 % 14.429 2.986 248 0.834 0
05-11-2012 05:40 97.1 % 14.549 3.037 247.571 0.718 0
05-11-2012 05:30 97 % 14.602 3.114 236.689 0.906 0
05-11-2012 05:20 96.8 % 14.563 3.088 234.079 0.744 0
05-11-2012 05:10 96.7 % 14.63 3.049 256.354 0.215 0
05-11-2012 05:00 96.7 % 14.7 3.088 296.772 1.322 0
05-11-2012 04:50 96.6 % 14.774 3.063 294.775 0.954 0
05-11-2012 04:40 96.3 % 14.814 2.998 297.959 0.683 0
05-11-2012 04:30 95.6 % 14.844 2.87 285.987 0.773 0
05-11-2012 04:20 94.9 % 14.996 2.767 312.676 1.005 0
05-11-2012 04:10 94 % 15.252 2.511 326.821 0.365 0
05-11-2012 04:00 94.4 % 16.013 2.729 262.588 1.71 0
05-11-2012 03:50 93.8 % 16.183 2.421 211.303 0.817 0
05-11-2012 03:40 93.4 % 16.358 2.177 201.805 1.632 0
05-11-2012 03:30 92.8 % 16.544 2.023 183.835 1.755 0
05-11-2012 03:20 93.6 % 16.637 2.537 223.706 0.938 0
05-11-2012 03:10 94.5 % 16.6 2.511 184.205 1.755 0
05-11-2012 03:00 95.9 % 16.269 2.537 239.475 1.713 0

I dati sono presentati in modo automatico a scopo informativo. In seguito a verifica i dati possono subire modifiche o essere invalidati e non riportati negli archivi definitivi.